2005 ERNEST (2005017S09061)


On this page: IBTrACS data - Map and Plots - Positions - Intensities - Original source data

Summary

Start Jan 16
End Jan 25
Basin SI
LMI 100 kt
Sources jtwc_sh
reunion
neumann
In WMO? Yes
Previous storm 2005 DAREN (SI)
Previous in basin 2005 DAREN (SI)
Concurrent storms 2005 KERRY (SP)
2005 MISSING (NI)
2005 KULAB (WP)
2005 MISSING (SI)
2005 DAREN (SI)
2005 ERNEST (SI)
2005 TIM (SI)
Next in basin 2005 TIM (SI)
Next storm 2005 TIM (SI)

top of page IBTrACS Data: File Access

top of page HURSAT Data: File Access

Image of storm

top of page Plots:

Map of storm track will not appear if FTP is down
Time series of cyclone Maximum Sustained Wind will not appear if FTP is down
Time series of cyclone Minimum Central Pressure will not appear if FTP is down

top of page Track Data:Position

jtwc_sh reunion neumann
Date Lat Lon Lat Lon Lat Lon
2005-01-16 12:00:00 -8.8 60.8 -8.5 60.8 -8.8 60.8
2005-01-16 18:00:00 -9.0 59.8 -9.0 59.7 -9.0 59.8
2005-01-17 00:00:00 -9.3 58.5 -9.4 58.8 -9.3 58.5
2005-01-17 06:00:00 -9.5 57.7 -9.6 58.2 -9.5 57.7
2005-01-17 12:00:00 -9.7 57.0 -9.8 57.6 -9.7 57.0
2005-01-17 18:00:00 -9.9 56.1 -10.0 56.8 -9.9 56.1
2005-01-18 00:00:00 -10.1 55.2 -10.2 55.9 -10.1 55.2
2005-01-18 06:00:00 -10.2 54.6 -10.2 54.9 -10.2 54.6
2005-01-18 12:00:00 -10.2 53.9 -10.3 53.7 -10.2 53.9
2005-01-18 18:00:00 -10.2 52.9 -10.3 52.3 -10.2 52.9
2005-01-19 00:00:00 -10.2 51.7 -10.4 51.0 -10.2 51.7
2005-01-19 06:00:00 -10.4 50.6 -10.8 50.0 -10.4 50.6
2005-01-19 12:00:00 -11.1 49.1 -11.5 48.9 -11.1 49.1
2005-01-19 18:00:00 -11.9 47.5 -12.0 47.6 -11.9 47.5
2005-01-20 00:00:00 -12.3 46.3 -12.3 46.3 -12.3 46.3
2005-01-20 06:00:00 -12.9 45.3 -12.7 45.4 -12.9 45.3
2005-01-20 12:00:00 -13.5 44.2 -13.6 44.3 -13.5 44.2
2005-01-20 18:00:00 -14.2 43.3 -14.3 43.5 -14.2 43.3
2005-01-21 00:00:00 -15.0 42.6 -15.2 42.8 -15.0 42.6
2005-01-21 06:00:00 -16.0 42.1 -16.1 42.1 -16.0 42.1
2005-01-21 12:00:00 -17.1 41.9 -17.0 41.8 -17.1 41.9
2005-01-21 18:00:00 -18.2 41.9 -18.1 41.9 -18.2 41.9
2005-01-22 00:00:00 -19.5 41.9 -19.5 41.9 -19.5 41.9
2005-01-22 06:00:00 -20.6 42.0 -20.7 42.0 -20.6 42.0
2005-01-22 12:00:00 -21.8 42.2 -21.9 42.2 -21.8 42.2
jtwc_sh reunion neumann
2005-01-22 18:00:00 -22.9 42.6 -22.9 42.5 -22.9 42.6
2005-01-23 00:00:00 -23.7 43.0 -23.8 43.0 -23.7 43.0
2005-01-23 06:00:00 -24.7 43.9 -24.9 43.8 -24.7 43.9
2005-01-23 12:00:00 -25.5 44.9 -25.9 45.0 -25.5 44.9
2005-01-23 18:00:00 -26.7 46.3 -27.0 46.3 -26.7 46.3
2005-01-24 00:00:00 -28.1 48.0 -28.5 48.2 -28.1 48.0
2005-01-24 06:00:00 -29.7 50.0 -29.9 50.0 -29.7 50.0
2005-01-24 12:00:00 -31.3 53.0
2005-01-24 18:00:00 -32.7 56.3
2005-01-25 00:00:00 -35.1 60.1
2005-01-25 06:00:00 -36.8 63.3

top of pageTrack Data:Intensity

jtwc_sh reunion neumann
Date Wind Pres Wind Pres Wind Pres
2005-01-16 12:00:00 15. 1006. 20. 1007. 15.
2005-01-16 18:00:00 20. 1004. 20. 1007. 20.
2005-01-17 00:00:00 25. 1002. 20. 1007. 25.
2005-01-17 06:00:00 25. 1002. 20. 1007. 25.
2005-01-17 12:00:00 25. 1002. 20. 1007. 25.
2005-01-17 18:00:00 30. 1000. 20. 1007. 30.
2005-01-18 00:00:00 30. 1000. 20. 1007. 30.
2005-01-18 06:00:00 30. 1000. 20. 1006. 30.
2005-01-18 12:00:00 30. 1000. 20. 1005. 30.
2005-01-18 18:00:00 30. 1000. 20. 1005. 30.
2005-01-19 00:00:00 30. 1000. 25. 1003. 30.
2005-01-19 06:00:00 35. 997. 25. 1003. 35.
2005-01-19 12:00:00 35. 997. 25. 1003. 35.
2005-01-19 18:00:00 35. 997. 25. 1002. 35.
2005-01-20 00:00:00 40. 994. 30. 1000. 40.
2005-01-20 06:00:00 50. 987. 40. 994. 50.
2005-01-20 12:00:00 55. 984. 55. 983. 55.
2005-01-20 18:00:00 65. 976. 65. 975. 65.
2005-01-21 00:00:00 65. 976. 65. 975. 65.
2005-01-21 06:00:00 65. 976. 65. 975. 65.
2005-01-21 12:00:00 75. 967. 65. 974. 75.
2005-01-21 18:00:00 85. 958. 70. 970. 85.
2005-01-22 00:00:00 90. 954. 80. 960. 90.
2005-01-22 06:00:00 100. 944. 90. 950. 100.
2005-01-22 12:00:00 100. 944. 90. 950. 100.
jtwc_sh reunion neumann
2005-01-22 18:00:00 100. 944. 85. 955. 100.
2005-01-23 00:00:00 100. 944. 80. 960. 100.
2005-01-23 06:00:00 90. 954. 70. 970. 90.
2005-01-23 12:00:00 75. 967. 60. 978. 75.
2005-01-23 18:00:00 60. 980. 60. 980. 60.
2005-01-24 00:00:00 50. 987. 60. 985. 50.
2005-01-24 06:00:00 30. 1000. 60. 987. 30.
2005-01-24 12:00:00 70. 990.
2005-01-24 18:00:00 65. 992.
2005-01-25 00:00:00 55. 995.
2005-01-25 06:00:00 50. 998.

top of page Links to source data

Source Source file Format
jtwc_sh bsh122005.txt ATCF
reunion Best-Tracks-NewWMOFormat.txt:Line=717:ERNEST WMO (old format)
neumann tracks.sh:Storm=1314:Ernest:BSH122005:JTWC HURDAT